WetterOnline ( https://www.wetteronline.de )

Wetter aktuell Messina

Aktuelles Wetter: Messina (51m)

6-stündlich | Neueste Meldungen
Ortszeit Temperatur Wetter
Do, 24.09. 2:00 24.8° C leicht bewölkt
Mi, 23.09. 20:00 26.0° C bewölkt
Mi, 23.09. 14:00 29.0° C wolkig
Mi, 23.09. 8:00 23.2° C fast wolkenlos
Mi, 23.09. 2:00 24.2° C wolkig
Di, 22.09. 20:00 23.0° C Gewitter
Di, 22.09. 14:00 28.6° C leicht bewölkt
Di, 22.09. 8:00 23.2° C leicht bewölkt
Ortszeit Temperatur Wetter
Do, 24.09. 7:00 23.8° C leicht bewölkt
Do, 24.09. 6:55 24° C leicht bewölkt
Do, 24.09. 6:00 24.2° C leicht bewölkt
Do, 24.09. 5:55 24° C leicht bewölkt
Do, 24.09. 5:00 24.2° C leicht bewölkt
Do, 24.09. 4:55 24° C leicht bewölkt
Do, 24.09. 4:00 24.4° C leicht bewölkt
Do, 24.09. 3:55 24° C leicht bewölkt
Do, 24.09. 3:00 24.6° C leicht bewölkt
Ortszeit Relative Feuchte Sichtweite
Do, 24.09. 2:00 74% 12 km
Mi, 23.09. 20:00 63% 10 km
Mi, 23.09. 14:00 55% 10 km
Mi, 23.09. 8:00 77% 20 km
Mi, 23.09. 2:00 77% 16 km
Di, 22.09. 20:00 84% 8 km
Di, 22.09. 14:00 45% 20 km
Di, 22.09. 8:00 80% 16 km
Ortszeit Relative Feuchte Sichtweite
Do, 24.09. 7:00 75% 10 km
Do, 24.09. 6:55 74% >10 km
Do, 24.09. 6:00 71% 10 km
Do, 24.09. 5:55 74% >10 km
Do, 24.09. 5:00 72% 10 km
Do, 24.09. 4:55 74% >10 km
Do, 24.09. 4:00 73% 10 km
Do, 24.09. 3:55 74% >10 km
Do, 24.09. 3:00 73% 10 km
Ortszeit Niederschlagsmenge Niederschlagsart
Do, 24.09. 2:00 0.0 l/m2 in 6 Std. -
Mi, 23.09. 20:00 0.0 l/m2 in 12 Std. -
Mi, 23.09. 14:00 0.0 l/m2 in 6 Std. -
Mi, 23.09. 8:00 0.1 l/m2 in 12 Std. -
Mi, 23.09. 2:00 0.1 l/m2 in 6 Std. Gewitter
Di, 22.09. 20:00 3 l/m2 in 12 Std. Gewitter
Di, 22.09. 14:00 0.0 l/m2 in 6 Std. -
Di, 22.09. 8:00 0.0 l/m2 in 12 Std. -
Ortszeit Niederschlagsmenge Niederschlagsart
Do, 24.09. 7:00 keine Meldung -
Do, 24.09. 6:55 keine Meldung -
Do, 24.09. 6:00 keine Meldung -
Do, 24.09. 5:55 keine Meldung -
Do, 24.09. 5:00 keine Meldung -
Do, 24.09. 4:55 keine Meldung -
Do, 24.09. 4:00 keine Meldung -
Do, 24.09. 3:55 keine Meldung -
Do, 24.09. 3:00 keine Meldung -
Ortszeit Stärke Spitze Richtung
km/h Bft. km/h Grad Sektor
Do, 24.09. 2:00 15 3 - 300° NW
Mi, 23.09. 20:00 6 1 - - -
Mi, 23.09. 14:00 9 2 - 130° SO
Mi, 23.09. 8:00 4 1 - 80° O
Mi, 23.09. 2:00 11 2 - 230° SW
Di, 22.09. 20:00 11 2 - 230° SW
Di, 22.09. 14:00 7 2 - 110° O
Di, 22.09. 8:00 0 0 - - -
Ortszeit Stärke Spitze Richtung
km/h Bft. km/h Grad Sektor
Do, 24.09. 7:00 4 1 - 90° O
Do, 24.09. 6:55 4 1 - 90° O
Do, 24.09. 6:00 13 3 - 300° NW
Do, 24.09. 5:55 13 3 - 300° NW
Do, 24.09. 5:00 11 2 - 300° NW
Do, 24.09. 4:55 11 2 - 300° NW
Do, 24.09. 4:00 13 3 - 320° NW
Do, 24.09. 3:55 13 3 - 320° NW
Do, 24.09. 3:00 15 3 - 310° NW
Ortszeit Untergrenze Bedeckung Gattung
total tief tief mittel hoch
Do, 24.09. 2:00 750 m 5/8 3/8 Sc As -
Mi, 23.09. 20:00 750 m 7/8 5/8 Cu Ns -
Mi, 23.09. 14:00 900 m 6/8 1/8 Cu As Ci
Mi, 23.09. 8:00 900 m 2/8 1/8 Cu Ac -
Mi, 23.09. 2:00 900 m 5/8 1/8 Cu As -
Di, 22.09. 20:00 900 m 7/8 6/8 Cb Ns -
Di, 22.09. 14:00 750 m 3/8 2/8 Cu As -
Di, 22.09. 8:00 6000 m 3/8 3/8 - - Ci
Ortszeit Bedeckungsgrad in Achtel und Wolkenuntergrenze
Do, 24.09. 7:00 1(600m)
Do, 24.09. 6:55 1-2(600m)
Do, 24.09. 6:00 3(900m)
Do, 24.09. 5:55 3-4(900m)
Do, 24.09. 5:00 3(750m)
Do, 24.09. 4:55 3-4(750m)
Do, 24.09. 4:00 3(750m) 3(2400m)
Do, 24.09. 3:55 3-4(750m)
Do, 24.09. 3:00 3(750m) 3(2400m)
Ortszeit Luftdruck NN (hPa) Tendenz (hPa in 3 Std.)
Do, 24.09. 2:00 1014 + 0,2
Mi, 23.09. 20:00 1013 + 1,0
Mi, 23.09. 14:00 1013 - 1,3
Mi, 23.09. 8:00 1014 - 0,1
Mi, 23.09. 2:00 1015 - 0,2
Di, 22.09. 20:00 1016 + 0,1
Di, 22.09. 14:00 1016 - 0,3
Di, 22.09. 8:00 1016 0,0
Ortszeit Luftdruck NN (hPa) Tendenz (hPa in 3 Std.)
Do, 24.09. 7:00 1014 + 0,8
Do, 24.09. 6:55 1014 keine Meldung
Do, 24.09. 6:00 1014 + 0,6
Do, 24.09. 5:55 1014 keine Meldung
Do, 24.09. 5:00 1014 - 0,1
Do, 24.09. 4:55 1013 keine Meldung
Do, 24.09. 4:00 1013 - 0,4
Do, 24.09. 3:55 1013 keine Meldung
Do, 24.09. 3:00 1014 - 0,1
Ortszeit Schneehöhe (cm)
Do, 24.09. 2:00 -
Mi, 23.09. 20:00 -
Mi, 23.09. 14:00 -
Mi, 23.09. 8:00 -
Mi, 23.09. 2:00 -
Di, 22.09. 20:00 -
Di, 22.09. 14:00 -
Di, 22.09. 8:00 0
Ortszeit Schneehöhe (cm)
Do, 24.09. 7:00 -
Do, 24.09. 6:55 -
Do, 24.09. 6:00 -
Do, 24.09. 5:55 -
Do, 24.09. 5:00 -
Do, 24.09. 4:55 -
Do, 24.09. 4:00 -
Do, 24.09. 3:55 -
Do, 24.09. 3:00 -
Link zu dieser Seite / Seite empfehlen

Das Wetter in ...